sensor_id;sensor_type;location;lat;lon;timestamp;temperature;humidity
58809;DHT22;44579;51.672;7.834;2023-07-31T00:01:38;17.70;75.70
58809;DHT22;44579;51.672;7.834;2023-07-31T00:04:04;17.70;76.00
58809;DHT22;44579;51.672;7.834;2023-07-31T00:06:31;17.60;76.30
58809;DHT22;44579;51.672;7.834;2023-07-31T00:08:58;17.60;76.40
58809;DHT22;44579;51.672;7.834;2023-07-31T00:11:25;17.60;76.50
58809;DHT22;44579;51.672;7.834;2023-07-31T00:13:52;17.60;76.40
58809;DHT22;44579;51.672;7.834;2023-07-31T00:16:19;17.60;76.40
58809;DHT22;44579;51.672;7.834;2023-07-31T00:18:46;17.60;76.60
58809;DHT22;44579;51.672;7.834;2023-07-31T00:21:13;17.60;77.30
58809;DHT22;44579;51.672;7.834;2023-07-31T00:23:40;17.50;77.30
58809;DHT22;44579;51.672;7.834;2023-07-31T00:26:07;17.50;77.80
58809;DHT22;44579;51.672;7.834;2023-07-31T00:28:34;17.40;77.90
58809;DHT22;44579;51.672;7.834;2023-07-31T00:31:01;17.40;77.90
58809;DHT22;44579;51.672;7.834;2023-07-31T00:33:31;17.40;77.80
58809;DHT22;44579;51.672;7.834;2023-07-31T00:35:57;17.40;77.60
58809;DHT22;44579;51.672;7.834;2023-07-31T00:38:25;17.50;77.50
58809;DHT22;44579;51.672;7.834;2023-07-31T00:40:52;17.50;77.30
58809;DHT22;44579;51.672;7.834;2023-07-31T00:43:19;17.50;77.30
58809;DHT22;44579;51.672;7.834;2023-07-31T00:45:45;17.40;77.20
58809;DHT22;44579;51.672;7.834;2023-07-31T00:48:12;17.40;77.30
58809;DHT22;44579;51.672;7.834;2023-07-31T00:50:39;17.30;77.20
58809;DHT22;44579;51.672;7.834;2023-07-31T00:53:06;17.40;77.30
58809;DHT22;44579;51.672;7.834;2023-07-31T00:55:33;17.40;77.10
58809;DHT22;44579;51.672;7.834;2023-07-31T00:57:59;17.50;76.90
58809;DHT22;44579;51.672;7.834;2023-07-31T01:00:26;17.50;76.80
58809;DHT22;44579;51.672;7.834;2023-07-31T01:02:53;17.60;76.80
58809;DHT22;44579;51.672;7.834;2023-07-31T01:05:22;17.50;76.90
58809;DHT22;44579;51.672;7.834;2023-07-31T01:08:12;17.50;76.90
58809;DHT22;44579;51.672;7.834;2023-07-31T01:10:46;17.50;76.90
58809;DHT22;44579;51.672;7.834;2023-07-31T01:13:14;17.50;76.90
58809;DHT22;44579;51.672;7.834;2023-07-31T01:15:41;17.50;77.00
58809;DHT22;44579;51.672;7.834;2023-07-31T01:18:08;17.40;76.90
58809;DHT22;44579;51.672;7.834;2023-07-31T01:20:35;17.40;76.90
58809;DHT22;44579;51.672;7.834;2023-07-31T01:25:45;17.40;76.80
58809;DHT22;44579;51.672;7.834;2023-07-31T01:28:13;17.40;76.90
58809;DHT22;44579;51.672;7.834;2023-07-31T01:30:44;17.40;77.10
58809;DHT22;44579;51.672;7.834;2023-07-31T01:33:11;17.40;77.10
58809;DHT22;44579;51.672;7.834;2023-07-31T01:35:39;17.40;77.10
58809;DHT22;44579;51.672;7.834;2023-07-31T01:38:06;17.30;77.10
58809;DHT22;44579;51.672;7.834;2023-07-31T01:40:33;17.30;77.20
58809;DHT22;44579;51.672;7.834;2023-07-31T01:42:59;17.20;77.30
58809;DHT22;44579;51.672;7.834;2023-07-31T01:45:28;17.20;77.40
58809;DHT22;44579;51.672;7.834;2023-07-31T01:47:54;17.20;77.50
58809;DHT22;44579;51.672;7.834;2023-07-31T01:50:22;17.30;77.60
58809;DHT22;44579;51.672;7.834;2023-07-31T01:52:49;17.20;77.60
58809;DHT22;44579;51.672;7.834;2023-07-31T01:55:16;17.20;77.70
58809;DHT22;44579;51.672;7.834;2023-07-31T01:57:42;17.30;77.80
58809;DHT22;44579;51.672;7.834;2023-07-31T02:00:09;17.30;77.80
58809;DHT22;44579;51.672;7.834;2023-07-31T02:02:39;17.30;77.90
58809;DHT22;44579;51.672;7.834;2023-07-31T02:05:06;17.30;77.90
58809;DHT22;44579;51.672;7.834;2023-07-31T02:07:33;17.30;77.90
58809;DHT22;44579;51.672;7.834;2023-07-31T02:10:00;17.30;78.00
58809;DHT22;44579;51.672;7.834;2023-07-31T02:12:26;17.30;77.90
58809;DHT22;44579;51.672;7.834;2023-07-31T02:14:53;17.30;78.10
58809;DHT22;44579;51.672;7.834;2023-07-31T02:17:20;17.30;78.20
58809;DHT22;44579;51.672;7.834;2023-07-31T02:19:48;17.30;78.20
58809;DHT22;44579;51.672;7.834;2023-07-31T02:22:14;17.30;78.20
58809;DHT22;44579;51.672;7.834;2023-07-31T02:24:41;17.30;78.40
58809;DHT22;44579;51.672;7.834;2023-07-31T02:27:08;17.30;78.40
58809;DHT22;44579;51.672;7.834;2023-07-31T02:29:35;17.30;78.30
58809;DHT22;44579;51.672;7.834;2023-07-31T02:32:01;17.40;78.20
58809;DHT22;44579;51.672;7.834;2023-07-31T02:34:28;17.30;78.30
58809;DHT22;44579;51.672;7.834;2023-07-31T02:36:55;17.30;78.40
58809;DHT22;44579;51.672;7.834;2023-07-31T02:39:22;17.30;78.50
58809;DHT22;44579;51.672;7.834;2023-07-31T02:41:48;17.30;78.40
58809;DHT22;44579;51.672;7.834;2023-07-31T02:44:16;17.40;78.60
58809;DHT22;44579;51.672;7.834;2023-07-31T02:46:43;17.30;78.70
58809;DHT22;44579;51.672;7.834;2023-07-31T02:49:11;17.30;78.70
58809;DHT22;44579;51.672;7.834;2023-07-31T02:51:38;17.30;78.80
58809;DHT22;44579;51.672;7.834;2023-07-31T02:54:04;17.30;78.70
58809;DHT22;44579;51.672;7.834;2023-07-31T02:56:31;17.30;78.80
58809;DHT22;44579;51.672;7.834;2023-07-31T02:58:58;17.30;79.00
58809;DHT22;44579;51.672;7.834;2023-07-31T03:01:25;17.30;80.10
58809;DHT22;44579;51.672;7.834;2023-07-31T03:03:52;17.30;79.40
58809;DHT22;44579;51.672;7.834;2023-07-31T03:06:19;17.30;79.40
58809;DHT22;44579;51.672;7.834;2023-07-31T03:08:47;17.30;79.30
58809;DHT22;44579;51.672;7.834;2023-07-31T03:11:14;17.30;79.30
58809;DHT22;44579;51.672;7.834;2023-07-31T03:13:41;17.30;79.40
58809;DHT22;44579;51.672;7.834;2023-07-31T03:16:07;17.30;79.50
58809;DHT22;44579;51.672;7.834;2023-07-31T03:18:34;17.30;79.50
58809;DHT22;44579;51.672;7.834;2023-07-31T03:21:01;17.30;79.70
58809;DHT22;44579;51.672;7.834;2023-07-31T03:23:28;17.30;79.70
58809;DHT22;44579;51.672;7.834;2023-07-31T03:25:55;17.30;79.70
58809;DHT22;44579;51.672;7.834;2023-07-31T03:28:22;17.30;79.70
58809;DHT22;44579;51.672;7.834;2023-07-31T03:30:49;17.30;79.80
58809;DHT22;44579;51.672;7.834;2023-07-31T03:33:16;17.30;80.00
58809;DHT22;44579;51.672;7.834;2023-07-31T03:35:42;17.30;80.10
58809;DHT22;44579;51.672;7.834;2023-07-31T03:38:09;17.20;80.30
58809;DHT22;44579;51.672;7.834;2023-07-31T03:40:38;17.20;80.30
58809;DHT22;44579;51.672;7.834;2023-07-31T03:43:05;17.20;80.30
58809;DHT22;44579;51.672;7.834;2023-07-31T03:45:32;17.30;80.50
58809;DHT22;44579;51.672;7.834;2023-07-31T03:47:59;17.20;80.60
58809;DHT22;44579;51.672;7.834;2023-07-31T03:50:26;17.20;80.60
58809;DHT22;44579;51.672;7.834;2023-07-31T03:52:52;17.30;80.70
58809;DHT22;44579;51.672;7.834;2023-07-31T03:55:19;17.30;80.70
58809;DHT22;44579;51.672;7.834;2023-07-31T03:57:46;17.30;80.70
58809;DHT22;44579;51.672;7.834;2023-07-31T04:00:13;17.30;80.80
58809;DHT22;44579;51.672;7.834;2023-07-31T04:02:40;17.20;80.80
58809;DHT22;44579;51.672;7.834;2023-07-31T04:05:07;17.30;80.90
58809;DHT22;44579;51.672;7.834;2023-07-31T04:07:34;17.20;80.90
58809;DHT22;44579;51.672;7.834;2023-07-31T04:10:03;17.20;81.10
58809;DHT22;44579;51.672;7.834;2023-07-31T04:12:30;17.20;81.20
58809;DHT22;44579;51.672;7.834;2023-07-31T04:14:57;17.20;81.30
58809;DHT22;44579;51.672;7.834;2023-07-31T04:17:23;17.20;81.50
58809;DHT22;44579;51.672;7.834;2023-07-31T04:19:50;17.20;81.50
58809;DHT22;44579;51.672;7.834;2023-07-31T04:22:17;17.30;81.60
58809;DHT22;44579;51.672;7.834;2023-07-31T04:24:44;17.30;81.70
58809;DHT22;44579;51.672;7.834;2023-07-31T04:27:11;17.30;81.60
58809;DHT22;44579;51.672;7.834;2023-07-31T04:29:37;17.30;81.60
58809;DHT22;44579;51.672;7.834;2023-07-31T04:32:06;17.30;81.80
58809;DHT22;44579;51.672;7.834;2023-07-31T04:34:33;17.30;81.90
58809;DHT22;44579;51.672;7.834;2023-07-31T04:37:00;17.30;81.90
58809;DHT22;44579;51.672;7.834;2023-07-31T04:39:26;17.40;81.90
58809;DHT22;44579;51.672;7.834;2023-07-31T04:41:53;17.40;81.80
58809;DHT22;44579;51.672;7.834;2023-07-31T04:44:20;17.40;82.00
58809;DHT22;44579;51.672;7.834;2023-07-31T04:46:47;17.40;82.00
58809;DHT22;44579;51.672;7.834;2023-07-31T04:49:14;17.40;82.10
58809;DHT22;44579;51.672;7.834;2023-07-31T04:51:41;17.40;82.20
58809;DHT22;44579;51.672;7.834;2023-07-31T04:54:08;17.40;82.20
58809;DHT22;44579;51.672;7.834;2023-07-31T04:56:35;17.50;82.20
58809;DHT22;44579;51.672;7.834;2023-07-31T04:59:02;17.50;82.20
58809;DHT22;44579;51.672;7.834;2023-07-31T05:01:29;17.50;82.20
58809;DHT22;44579;51.672;7.834;2023-07-31T05:03:55;17.50;82.20
58809;DHT22;44579;51.672;7.834;2023-07-31T05:06:22;17.50;82.40
58809;DHT22;44579;51.672;7.834;2023-07-31T05:08:49;17.50;82.30
58809;DHT22;44579;51.672;7.834;2023-07-31T05:11:16;17.60;82.40
58809;DHT22;44579;51.672;7.834;2023-07-31T05:13:43;17.60;82.40
58809;DHT22;44579;51.672;7.834;2023-07-31T05:16:10;17.60;82.40
58809;DHT22;44579;51.672;7.834;2023-07-31T05:18:37;17.60;82.40
58809;DHT22;44579;51.672;7.834;2023-07-31T05:21:03;17.60;82.60
58809;DHT22;44579;51.672;7.834;2023-07-31T05:23:30;17.60;83.50
58809;DHT22;44579;51.672;7.834;2023-07-31T05:26:03;17.70;82.60
58809;DHT22;44579;51.672;7.834;2023-07-31T05:28:30;17.60;82.60
58809;DHT22;44579;51.672;7.834;2023-07-31T05:31:01;17.60;82.60
58809;DHT22;44579;51.672;7.834;2023-07-31T05:33:28;17.70;82.70
58809;DHT22;44579;51.672;7.834;2023-07-31T05:35:54;17.70;82.70
58809;DHT22;44579;51.672;7.834;2023-07-31T05:38:21;17.80;82.70
58809;DHT22;44579;51.672;7.834;2023-07-31T05:40:48;17.80;82.80
58809;DHT22;44579;51.672;7.834;2023-07-31T05:43:15;17.80;83.00
58809;DHT22;44579;51.672;7.834;2023-07-31T05:45:42;17.70;83.00
58809;DHT22;44579;51.672;7.834;2023-07-31T05:48:09;17.70;83.20
58809;DHT22;44579;51.672;7.834;2023-07-31T05:50:36;17.70;83.20
58809;DHT22;44579;51.672;7.834;2023-07-31T05:53:06;17.70;83.30
58809;DHT22;44579;51.672;7.834;2023-07-31T05:55:34;17.80;83.20
58809;DHT22;44579;51.672;7.834;2023-07-31T05:58:01;17.80;83.20
58809;DHT22;44579;51.672;7.834;2023-07-31T06:00:28;17.80;83.20
58809;DHT22;44579;51.672;7.834;2023-07-31T06:02:56;17.80;83.20
58809;DHT22;44579;51.672;7.834;2023-07-31T06:05:23;17.80;83.30
58809;DHT22;44579;51.672;7.834;2023-07-31T06:07:50;17.90;83.40
58809;DHT22;44579;51.672;7.834;2023-07-31T06:10:17;18.00;83.40
58809;DHT22;44579;51.672;7.834;2023-07-31T06:12:44;18.00;83.40
58809;DHT22;44579;51.672;7.834;2023-07-31T06:15:10;18.00;83.40
58809;DHT22;44579;51.672;7.834;2023-07-31T06:17:38;18.00;83.40
58809;DHT22;44579;51.672;7.834;2023-07-31T06:20:05;18.00;83.50
58809;DHT22;44579;51.672;7.834;2023-07-31T06:22:32;18.00;83.60
58809;DHT22;44579;51.672;7.834;2023-07-31T06:25:00;17.90;83.50
58809;DHT22;44579;51.672;7.834;2023-07-31T06:27:27;18.00;83.70
58809;DHT22;44579;51.672;7.834;2023-07-31T06:29:54;17.90;83.70
58809;DHT22;44579;51.672;7.834;2023-07-31T06:32:21;17.90;83.60
58809;DHT22;44579;51.672;7.834;2023-07-31T06:34:48;18.00;83.70
58809;DHT22;44579;51.672;7.834;2023-07-31T06:37:15;18.10;83.60
58809;DHT22;44579;51.672;7.834;2023-07-31T06:39:42;18.10;83.60
58809;DHT22;44579;51.672;7.834;2023-07-31T06:42:09;18.10;83.60
58809;DHT22;44579;51.672;7.834;2023-07-31T06:44:35;18.10;83.70
58809;DHT22;44579;51.672;7.834;2023-07-31T06:47:02;18.00;83.70
58809;DHT22;44579;51.672;7.834;2023-07-31T06:49:29;18.00;84.00
58809;DHT22;44579;51.672;7.834;2023-07-31T06:51:56;18.00;84.10
58809;DHT22;44579;51.672;7.834;2023-07-31T06:54:23;18.00;84.10
58809;DHT22;44579;51.672;7.834;2023-07-31T06:56:50;18.00;84.20
58809;DHT22;44579;51.672;7.834;2023-07-31T06:59:16;18.00;84.30
58809;DHT22;44579;51.672;7.834;2023-07-31T07:01:43;18.00;84.30
58809;DHT22;44579;51.672;7.834;2023-07-31T07:04:10;18.10;84.30
58809;DHT22;44579;51.672;7.834;2023-07-31T07:06:37;18.00;84.30
58809;DHT22;44579;51.672;7.834;2023-07-31T07:09:04;18.00;84.30
58809;DHT22;44579;51.672;7.834;2023-07-31T07:11:31;18.00;84.40
58809;DHT22;44579;51.672;7.834;2023-07-31T07:13:58;18.00;84.60
58809;DHT22;44579;51.672;7.834;2023-07-31T07:16:25;18.00;84.60
58809;DHT22;44579;51.672;7.834;2023-07-31T07:18:51;18.00;84.70
58809;DHT22;44579;51.672;7.834;2023-07-31T07:21:30;18.00;84.70
58809;DHT22;44579;51.672;7.834;2023-07-31T07:23:57;18.00;84.70
58809;DHT22;44579;51.672;7.834;2023-07-31T07:26:24;18.00;84.70
58809;DHT22;44579;51.672;7.834;2023-07-31T07:28:51;18.00;84.70
58809;DHT22;44579;51.672;7.834;2023-07-31T07:31:17;18.00;84.60
58809;DHT22;44579;51.672;7.834;2023-07-31T07:33:44;18.10;84.60
58809;DHT22;44579;51.672;7.834;2023-07-31T07:36:11;18.10;84.60
58809;DHT22;44579;51.672;7.834;2023-07-31T07:38:39;18.10;84.50
58809;DHT22;44579;51.672;7.834;2023-07-31T07:41:07;18.20;84.40
58809;DHT22;44579;51.672;7.834;2023-07-31T07:43:34;18.30;84.40
58809;DHT22;44579;51.672;7.834;2023-07-31T07:46:01;18.30;84.40
58809;DHT22;44579;51.672;7.834;2023-07-31T07:48:30;18.30;84.50
58809;DHT22;44579;51.672;7.834;2023-07-31T07:50:57;18.30;84.70
58809;DHT22;44579;51.672;7.834;2023-07-31T07:53:23;18.30;85.00
58809;DHT22;44579;51.672;7.834;2023-07-31T07:55:50;18.20;85.20
58809;DHT22;44579;51.672;7.834;2023-07-31T07:58:17;18.20;85.40
58809;DHT22;44579;51.672;7.834;2023-07-31T08:00:50;18.20;85.60
58809;DHT22;44579;51.672;7.834;2023-07-31T08:03:17;18.20;85.50
58809;DHT22;44579;51.672;7.834;2023-07-31T08:05:44;18.20;85.60
58809;DHT22;44579;51.672;7.834;2023-07-31T08:08:14;18.10;85.70
58809;DHT22;44579;51.672;7.834;2023-07-31T08:10:41;18.20;85.90
58809;DHT22;44579;51.672;7.834;2023-07-31T08:13:11;18.20;85.90
58809;DHT22;44579;51.672;7.834;2023-07-31T08:15:41;18.20;86.00
58809;DHT22;44579;51.672;7.834;2023-07-31T08:18:09;18.20;86.20
58809;DHT22;44579;51.672;7.834;2023-07-31T08:20:40;18.20;86.30
58809;DHT22;44579;51.672;7.834;2023-07-31T08:23:07;18.20;86.40
58809;DHT22;44579;51.672;7.834;2023-07-31T08:25:37;18.20;86.40
58809;DHT22;44579;51.672;7.834;2023-07-31T08:28:04;18.20;86.50
58809;DHT22;44579;51.672;7.834;2023-07-31T08:30:32;18.30;86.70
58809;DHT22;44579;51.672;7.834;2023-07-31T08:33:00;18.20;86.70
58809;DHT22;44579;51.672;7.834;2023-07-31T08:35:27;18.30;86.90
58809;DHT22;44579;51.672;7.834;2023-07-31T08:37:56;18.30;86.70
58809;DHT22;44579;51.672;7.834;2023-07-31T08:40:23;18.40;86.70
58809;DHT22;44579;51.672;7.834;2023-07-31T08:42:52;18.50;86.70
58809;DHT22;44579;51.672;7.834;2023-07-31T08:45:19;18.50;86.60
58809;DHT22;44579;51.672;7.834;2023-07-31T08:47:48;18.60;86.90
58809;DHT22;44579;51.672;7.834;2023-07-31T08:50:17;18.70;87.00
58809;DHT22;44579;51.672;7.834;2023-07-31T08:52:48;18.60;87.40
58809;DHT22;44579;51.672;7.834;2023-07-31T08:55:15;18.60;88.30
58809;DHT22;44579;51.672;7.834;2023-07-31T08:57:42;18.70;87.80
58809;DHT22;44579;51.672;7.834;2023-07-31T09:00:10;18.70;88.10
58809;DHT22;44579;51.672;7.834;2023-07-31T09:02:38;18.80;88.00
58809;DHT22;44579;51.672;7.834;2023-07-31T09:05:07;18.90;88.00
58809;DHT22;44579;51.672;7.834;2023-07-31T09:07:35;18.90;88.00
58809;DHT22;44579;51.672;7.834;2023-07-31T09:10:05;19.00;88.10
58809;DHT22;44579;51.672;7.834;2023-07-31T09:12:32;19.00;88.20
58809;DHT22;44579;51.672;7.834;2023-07-31T09:14:59;18.90;88.30
58809;DHT22;44579;51.672;7.834;2023-07-31T09:17:30;18.90;88.30
58809;DHT22;44579;51.672;7.834;2023-07-31T09:19:57;18.80;88.30
58809;DHT22;44579;51.672;7.834;2023-07-31T09:22:31;18.80;88.40
58809;DHT22;44579;51.672;7.834;2023-07-31T09:25:14;18.80;88.40
58809;DHT22;44579;51.672;7.834;2023-07-31T09:27:51;18.80;88.50
58809;DHT22;44579;51.672;7.834;2023-07-31T09:30:18;18.70;88.70
58809;DHT22;44579;51.672;7.834;2023-07-31T09:32:45;18.70;89.00
58809;DHT22;44579;51.672;7.834;2023-07-31T09:37:42;18.70;89.40
58809;DHT22;44579;51.672;7.834;2023-07-31T09:40:09;18.60;89.40
58809;DHT22;44579;51.672;7.834;2023-07-31T09:42:50;18.60;89.80
58809;DHT22;44579;51.672;7.834;2023-07-31T09:45:18;18.50;90.00
58809;DHT22;44579;51.672;7.834;2023-07-31T09:47:54;18.50;90.10
58809;DHT22;44579;51.672;7.834;2023-07-31T09:50:22;18.50;90.10
58809;DHT22;44579;51.672;7.834;2023-07-31T09:52:49;18.50;90.00
58809;DHT22;44579;51.672;7.834;2023-07-31T09:55:16;18.60;90.00
58809;DHT22;44579;51.672;7.834;2023-07-31T09:57:49;18.60;89.90
58809;DHT22;44579;51.672;7.834;2023-07-31T10:00:17;18.60;90.10
58809;DHT22;44579;51.672;7.834;2023-07-31T10:02:45;18.70;90.20
58809;DHT22;44579;51.672;7.834;2023-07-31T10:05:13;18.70;90.20
58809;DHT22;44579;51.672;7.834;2023-07-31T10:07:42;18.80;90.10
58809;DHT22;44579;51.672;7.834;2023-07-31T10:10:09;18.90;90.20
58809;DHT22;44579;51.672;7.834;2023-07-31T10:12:37;19.00;90.10
58809;DHT22;44579;51.672;7.834;2023-07-31T10:15:04;19.10;90.20
58809;DHT22;44579;51.672;7.834;2023-07-31T10:17:31;19.10;90.20
58809;DHT22;44579;51.672;7.834;2023-07-31T10:19:58;19.20;90.30
58809;DHT22;44579;51.672;7.834;2023-07-31T10:22:29;19.10;90.40
58809;DHT22;44579;51.672;7.834;2023-07-31T10:24:57;19.20;90.50
58809;DHT22;44579;51.672;7.834;2023-07-31T10:27:24;19.20;90.50
58809;DHT22;44579;51.672;7.834;2023-07-31T10:29:55;19.30;90.50
58809;DHT22;44579;51.672;7.834;2023-07-31T10:32:22;19.30;90.50
58809;DHT22;44579;51.672;7.834;2023-07-31T10:34:50;19.30;90.60
58809;DHT22;44579;51.672;7.834;2023-07-31T10:37:24;19.40;90.80
58809;DHT22;44579;51.672;7.834;2023-07-31T10:39:55;19.40;90.80
58809;DHT22;44579;51.672;7.834;2023-07-31T10:44:59;19.50;90.70
58809;DHT22;44579;51.672;7.834;2023-07-31T10:47:26;19.50;90.80
58809;DHT22;44579;51.672;7.834;2023-07-31T10:50:12;19.50;90.90
58809;DHT22;44579;51.672;7.834;2023-07-31T10:52:39;19.50;91.00
58809;DHT22;44579;51.672;7.834;2023-07-31T10:57:46;19.50;91.00
58809;DHT22;44579;51.672;7.834;2023-07-31T11:00:21;19.40;91.10
58809;DHT22;44579;51.672;7.834;2023-07-31T11:02:58;19.30;91.20
58809;DHT22;44579;51.672;7.834;2023-07-31T11:05:44;19.30;91.20
58809;DHT22;44579;51.672;7.834;2023-07-31T11:08:16;19.40;91.30
58809;DHT22;44579;51.672;7.834;2023-07-31T11:10:44;19.40;91.30
58809;DHT22;44579;51.672;7.834;2023-07-31T11:13:11;19.40;91.40
58809;DHT22;44579;51.672;7.834;2023-07-31T11:15:38;19.40;91.40
58809;DHT22;44579;51.672;7.834;2023-07-31T11:18:05;19.40;91.40
58809;DHT22;44579;51.672;7.834;2023-07-31T11:20:37;19.50;91.30
58809;DHT22;44579;51.672;7.834;2023-07-31T11:23:08;19.50;91.20
58809;DHT22;44579;51.672;7.834;2023-07-31T11:25:36;19.50;91.10
58809;DHT22;44579;51.672;7.834;2023-07-31T11:28:06;19.50;91.20
58809;DHT22;44579;51.672;7.834;2023-07-31T11:30:34;19.40;91.30
58809;DHT22;44579;51.672;7.834;2023-07-31T11:33:01;19.40;91.30
58809;DHT22;44579;51.672;7.834;2023-07-31T11:35:30;19.30;91.30
58809;DHT22;44579;51.672;7.834;2023-07-31T11:37:57;19.40;91.40
58809;DHT22;44579;51.672;7.834;2023-07-31T11:40:24;19.30;91.20
58809;DHT22;44579;51.672;7.834;2023-07-31T11:42:59;19.30;91.20
58809;DHT22;44579;51.672;7.834;2023-07-31T11:45:30;19.30;91.20
58809;DHT22;44579;51.672;7.834;2023-07-31T11:47:59;19.30;91.20
58809;DHT22;44579;51.672;7.834;2023-07-31T11:50:27;19.30;91.30
58809;DHT22;44579;51.672;7.834;2023-07-31T11:52:55;19.30;91.30
58809;DHT22;44579;51.672;7.834;2023-07-31T11:55:22;19.20;91.30
58809;DHT22;44579;51.672;7.834;2023-07-31T11:57:50;19.20;91.20
58809;DHT22;44579;51.672;7.834;2023-07-31T12:00:17;19.10;91.10
58809;DHT22;44579;51.672;7.834;2023-07-31T12:02:44;19.10;91.10
58809;DHT22;44579;51.672;7.834;2023-07-31T12:05:11;19.10;91.10
58809;DHT22;44579;51.672;7.834;2023-07-31T12:07:46;19.10;91.10
58809;DHT22;44579;51.672;7.834;2023-07-31T12:10:26;19.10;91.20
58809;DHT22;44579;51.672;7.834;2023-07-31T12:15:35;19.10;91.20
58809;DHT22;44579;51.672;7.834;2023-07-31T12:18:05;19.30;91.20
58809;DHT22;44579;51.672;7.834;2023-07-31T12:20:33;19.50;91.10
58809;DHT22;44579;51.672;7.834;2023-07-31T12:23:01;19.70;91.00
58809;DHT22;44579;51.672;7.834;2023-07-31T12:25:28;19.80;91.10
58809;DHT22;44579;51.672;7.834;2023-07-31T12:27:55;19.90;91.10
58809;DHT22;44579;51.672;7.834;2023-07-31T12:30:26;20.00;91.20
58809;DHT22;44579;51.672;7.834;2023-07-31T12:32:53;20.00;91.20
58809;DHT22;44579;51.672;7.834;2023-07-31T12:35:20;20.10;91.40
58809;DHT22;44579;51.672;7.834;2023-07-31T12:37:46;20.20;91.30
58809;DHT22;44579;51.672;7.834;2023-07-31T12:40:13;20.40;91.50
58809;DHT22;44579;51.672;7.834;2023-07-31T12:42:43;20.50;91.60
58809;DHT22;44579;51.672;7.834;2023-07-31T12:45:09;20.70;91.70
58809;DHT22;44579;51.672;7.834;2023-07-31T12:47:36;20.80;91.80
58809;DHT22;44579;51.672;7.834;2023-07-31T12:50:03;21.00;91.80
58809;DHT22;44579;51.672;7.834;2023-07-31T12:52:30;21.20;91.80
58809;DHT22;44579;51.672;7.834;2023-07-31T12:54:57;21.40;91.70
58809;DHT22;44579;51.672;7.834;2023-07-31T12:57:23;21.40;91.90
58809;DHT22;44579;51.672;7.834;2023-07-31T12:59:50;21.30;92.10
58809;DHT22;44579;51.672;7.834;2023-07-31T13:02:17;21.30;92.20
58809;DHT22;44579;51.672;7.834;2023-07-31T13:04:47;21.20;92.20
58809;DHT22;44579;51.672;7.834;2023-07-31T13:07:14;21.10;92.20
58809;DHT22;44579;51.672;7.834;2023-07-31T13:09:40;21.00;92.30
58809;DHT22;44579;51.672;7.834;2023-07-31T13:12:07;21.00;92.30
58809;DHT22;44579;51.672;7.834;2023-07-31T13:14:34;20.90;92.30
58809;DHT22;44579;51.672;7.834;2023-07-31T13:17:01;20.80;92.20
58809;DHT22;44579;51.672;7.834;2023-07-31T13:19:27;20.70;92.10
58809;DHT22;44579;51.672;7.834;2023-07-31T13:21:54;20.60;92.10
58809;DHT22;44579;51.672;7.834;2023-07-31T13:24:21;20.50;92.10
58809;DHT22;44579;51.672;7.834;2023-07-31T13:26:48;20.40;92.10
58809;DHT22;44579;51.672;7.834;2023-07-31T13:29:15;20.30;92.10
58809;DHT22;44579;51.672;7.834;2023-07-31T13:31:41;20.20;92.00
58809;DHT22;44579;51.672;7.834;2023-07-31T13:34:08;20.10;92.10
58809;DHT22;44579;51.672;7.834;2023-07-31T13:36:37;20.10;92.00
58809;DHT22;44579;51.672;7.834;2023-07-31T13:39:05;20.10;92.00
58809;DHT22;44579;51.672;7.834;2023-07-31T13:41:31;20.20;92.00
58809;DHT22;44579;51.672;7.834;2023-07-31T13:43:58;20.20;91.90
58809;DHT22;44579;51.672;7.834;2023-07-31T13:46:25;20.20;91.90
58809;DHT22;44579;51.672;7.834;2023-07-31T13:48:52;20.30;91.90
58809;DHT22;44579;51.672;7.834;2023-07-31T13:51:22;20.30;91.90
58809;DHT22;44579;51.672;7.834;2023-07-31T13:53:49;20.50;91.90
58809;DHT22;44579;51.672;7.834;2023-07-31T13:56:15;20.60;91.70
58809;DHT22;44579;51.672;7.834;2023-07-31T13:58:42;20.70;91.70
58809;DHT22;44579;51.672;7.834;2023-07-31T14:01:09;20.70;91.70
58809;DHT22;44579;51.672;7.834;2023-07-31T14:03:36;20.80;91.60
58809;DHT22;44579;51.672;7.834;2023-07-31T14:06:02;20.90;91.60
58809;DHT22;44579;51.672;7.834;2023-07-31T14:08:29;20.90;91.50
58809;DHT22;44579;51.672;7.834;2023-07-31T14:10:56;20.90;91.50
58809;DHT22;44579;51.672;7.834;2023-07-31T14:13:23;20.90;91.50
58809;DHT22;44579;51.672;7.834;2023-07-31T14:15:49;20.80;91.50
58809;DHT22;44579;51.672;7.834;2023-07-31T14:18:17;20.80;91.60
58809;DHT22;44579;51.672;7.834;2023-07-31T14:20:44;20.70;91.50
58809;DHT22;44579;51.672;7.834;2023-07-31T14:23:11;20.60;91.60
58809;DHT22;44579;51.672;7.834;2023-07-31T14:25:37;20.50;91.70
58809;DHT22;44579;51.672;7.834;2023-07-31T14:28:04;20.50;91.70
58809;DHT22;44579;51.672;7.834;2023-07-31T14:30:31;20.40;91.60
58809;DHT22;44579;51.672;7.834;2023-07-31T14:32:58;20.40;91.50
58809;DHT22;44579;51.672;7.834;2023-07-31T14:35:27;20.40;91.50
58809;DHT22;44579;51.672;7.834;2023-07-31T14:37:54;20.50;91.40
58809;DHT22;44579;51.672;7.834;2023-07-31T14:40:20;20.50;91.40
58809;DHT22;44579;51.672;7.834;2023-07-31T14:42:47;20.50;91.50
58809;DHT22;44579;51.672;7.834;2023-07-31T14:45:14;20.60;91.40
58809;DHT22;44579;51.672;7.834;2023-07-31T14:47:41;20.80;91.30
58809;DHT22;44579;51.672;7.834;2023-07-31T14:50:07;20.90;91.30
58809;DHT22;44579;51.672;7.834;2023-07-31T14:52:34;21.10;91.20
58809;DHT22;44579;51.672;7.834;2023-07-31T14:55:01;21.30;91.20
58809;DHT22;44579;51.672;7.834;2023-07-31T14:57:28;21.50;91.10
58809;DHT22;44579;51.672;7.834;2023-07-31T14:59:55;21.60;91.10
58809;DHT22;44579;51.672;7.834;2023-07-31T15:02:22;21.60;91.10
58809;DHT22;44579;51.672;7.834;2023-07-31T15:04:49;21.50;91.10
58809;DHT22;44579;51.672;7.834;2023-07-31T15:07:15;21.40;91.10
58809;DHT22;44579;51.672;7.834;2023-07-31T15:09:42;21.40;91.10
58809;DHT22;44579;51.672;7.834;2023-07-31T15:12:09;21.30;91.10
58809;DHT22;44579;51.672;7.834;2023-07-31T15:14:36;21.30;91.20
58809;DHT22;44579;51.672;7.834;2023-07-31T15:17:03;21.20;91.10
58809;DHT22;44579;51.672;7.834;2023-07-31T15:19:29;21.20;91.00
58809;DHT22;44579;51.672;7.834;2023-07-31T15:21:57;21.10;91.00
58809;DHT22;44579;51.672;7.834;2023-07-31T15:24:23;21.00;91.00
58809;DHT22;44579;51.672;7.834;2023-07-31T15:26:50;21.00;91.00
58809;DHT22;44579;51.672;7.834;2023-07-31T15:29:17;20.90;90.90
58809;DHT22;44579;51.672;7.834;2023-07-31T15:31:46;20.90;91.10
58809;DHT22;44579;51.672;7.834;2023-07-31T15:34:14;20.80;90.80
58809;DHT22;44579;51.672;7.834;2023-07-31T15:36:41;20.80;90.90
58809;DHT22;44579;51.672;7.834;2023-07-31T15:39:08;20.80;91.30
58809;DHT22;44579;51.672;7.834;2023-07-31T15:41:35;20.70;90.80
58809;DHT22;44579;51.672;7.834;2023-07-31T15:44:02;20.70;90.80
58809;DHT22;44579;51.672;7.834;2023-07-31T15:46:28;20.70;90.80